• Join FlightAware (Why Join?)
  • Login
  • US Flag 
07:14AM EDT


 

Airport Tracker/Info


-or-


 

Live Flight TrackerFlight Track Log ✈ EJA831 ✈ 27-Apr-2013 ✈ KLAF - KMQS

Flight Track Log - Related Links

Times and Time Zones

All times are in EDT time to prevent confusion due to time zone crossing. See the EJA831 flight status page for this flight to view local times or setup timezone preferences in your user account.

Time Position Orientation Groundspeed Altitude Reporting Facility
EDT Latitude Longitude Course Direction KTS MPH feet Rate Location/Type
02:09PM 40.4097 -86.9142 94° East 162 186 1,900  Level Chicago Center
02:09PM 40.4081 -86.8800 94° East 199 229 3,100 3,660 Climbing Chicago Center
02:10PM 40.3969 -86.7922 99° East 244 281 7,200 3,480 Climbing Chicago Center
02:11PM 40.3864 -86.6925 98° East 270 311 10,400 3,360 Climbing Chicago Center
02:12PM 40.3750 -86.5861 98° East 291 335 14,100 3,120 Climbing Chicago Center
02:13PM 40.3625 -86.4744 98° East 305 351 16,900 2,580 Climbing Chicago Center
02:14PM 40.3492 -86.3544 98° East 326 375 19,500 2,460 Climbing Chicago Center
02:15PM 40.3356 -86.2300 98° East 340 391 22,000 1,680 Climbing Chicago Center
02:16PM 40.3203 -86.0986 99° East 358 412 23,000 960 Climbing Chicago Center
02:18PM 40.2961 -85.9544 102° East 399 459 24,100 1,080 Climbing Chicago Center
02:19PM 40.2367 -85.7608 112° Southeast 427 491 25,500 1,020 Climbing Chicago Center
02:20PM 40.2158 -85.6022 100° East 457 526 26,500 960 Climbing Chicago Center
02:21PM 40.2233 -85.4372 87° East 452 520 27,500 900 Climbing Chicago Center
02:22PM 40.2278 -85.2958 88° East 458 527 28,300 1,020 Climbing Indianapolis Center
02:23PM 40.2361 -85.1256 86° East 463 533 29,500 1,380 Climbing Indianapolis Center
02:24PM 40.2419 -84.9561 87° East 462 532 31,200 1,620 Climbing Indianapolis Center
02:25PM 40.2492 -84.7856 87° East 454 522 32,900 1,500 Climbing Indianapolis Center
02:26PM 40.2544 -84.6194 88° East 453 521 34,300 1,080 Climbing Indianapolis Center
02:27PM 40.2603 -84.4486 87° East 463 533 35,200 1,260 Climbing Indianapolis Center
02:28PM 40.2664 -84.2781 87° East 465 535 37,000 1,320 Climbing Indianapolis Center
02:29PM 40.2714 -84.1133 88° East 453 521 38,000 480 Climbing Indianapolis Center
02:30PM 40.2769 -83.9406 88° East 464 534 38,000 240 Level Indianapolis Center
02:31PM 40.2817 -83.7622 88° East 480 552 38,600 1,140 Climbing Indianapolis Center
02:32PM 40.2867 -83.5956 88° East 458 527 40,400 1,140 Climbing Indianapolis Center
02:33PM 40.2911 -83.4075 88° East 439 505 41,000 240 Climbing Indianapolis Center
02:34PM 40.2964 -83.2389 88° East 452 520 41,000  Level Indianapolis Center
02:35PM 40.2992 -83.0683 89° East 459 528 41,000  Level Indianapolis Center
02:36PM 40.3036 -82.8958 88° East 466 536 41,000  Level Indianapolis Center
02:37PM 40.3058 -82.7425 89° East 469 540 41,000  Level Indianapolis Center
02:38PM 40.3111 -82.5431 88° East 468 539 41,000  Level Indianapolis Center
02:39PM 40.3131 -82.3708 89° East 471 542 41,000  Level Indianapolis Center
02:40PM 40.3158 -82.1994 89° East 470 541 41,000  Level Indianapolis Center
02:41PM 40.3186 -82.0261 89° East 473 544 41,000  Level Indianapolis Center
02:42PM 40.3200 -81.8542 89° East 472 543 41,000  Level Indianapolis Center
02:43PM 40.3217 -81.6797 89° East 477 549 41,000  Level Indianapolis Center
02:44PM 40.3236 -81.5067 89° East 475 547 41,000  Level Indianapolis Center
02:44PM 40.3264 -81.4600 86° East 473 544 41,000  Level Cleveland Center
02:45PM 40.3256 -81.2883 90° East 473 544 41,000  Level Cleveland Center
02:46PM 40.3286 -81.1169 89° East 473 544 41,000  Level Cleveland Center
02:47PM 40.3292 -80.9453 90° East 473 544 41,000  Level Cleveland Center
02:48PM 40.3297 -80.7764 90° East 473 544 41,000  Level Cleveland Center
02:49PM 40.3297 -80.6050 90° East 473 544 41,000  Level Cleveland Center
02:50PM 40.3297 -80.4333 90° East 468 539 41,000  Level Cleveland Center
02:51PM 40.3272 -80.2617 91° East 468 539 41,000  Level Cleveland Center
02:52PM 40.3267 -80.0928 90° East 463 533 41,000  Level Cleveland Center
02:53PM 40.3278 -79.9022 90° East 470 541 41,000  Level Cleveland Center
02:54PM 40.3267 -79.7308 90° East 470 541 41,000 -660 Level Cleveland Center
02:55PM 40.3272 -79.5619 90° East 470 541 39,700 -1,560 Descending Cleveland Center
02:56PM 40.3236 -79.3903 92° East 470 541 37,900 -1,800 Descending Cleveland Center
02:57PM 40.3197 -79.2353 92° East 470 541 36,100 -1,920 Descending Cleveland Center
02:58PM 40.3175 -79.0556 91° East 477 549 34,100 -1,920 Descending Cleveland Center
02:59PM 40.3150 -78.8786 91° East 482 555 32,300 -1,860 Descending Cleveland Center
03:00PM 40.3164 -78.6933 89° East 477 549 30,400 -1,800 Descending Cleveland Center
03:01PM 40.3156 -78.5272 90° East 463 533 28,800 -1,620 Descending Cleveland Center
03:02PM 40.3144 -78.3558 90° East 457 526 27,200 -1,440 Descending Cleveland Center
03:04PM 40.3114 -78.0964 91° East 455 524 25,000 -840 Descending New York Center
03:05PM 40.3108 -77.9383 90° East 441 507 25,000 -240 Level New York Center
03:06PM 40.3117 -77.7833 90° East 436 502 24,600 -1,320 Descending New York Center
03:07PM 40.3103 -77.6278 91° East 426 490 22,400 -1,860 Descending New York Center
03:08PM 40.3083 -77.4833 91° East 414 476 20,900 -2,040 Descending New York Center
03:09PM 40.3067 -77.3253 91° East 402 463 18,500 -2,040 Descending New York Center
03:10PM 40.3017 -77.1914 93° East 380 437 17,000 -1,800 Descending New York Center
03:11PM 40.2753 -77.0611 105° East 370 426 14,900 -1,980 Descending New York Center
03:12PM 40.2525 -76.9392 104° East 356 410 13,100 -960 Descending New York Center
03:13PM 40.2275 -76.8147 105° East 351 404 13,000 -60 Descending New York Center
03:14PM 40.2042 -76.7039 105° East 351 404 13,000  Level New York Center
03:15PM 40.1792 -76.5767 104° East 351 404 13,000  Level New York Center
03:16PM 40.1503 -76.4386 105° East 356 410 13,000  Level New York Center
03:17PM 40.1231 -76.3114 106° East 356 410 13,000  Level New York Center
03:18PM 40.1122 -76.1856 96° East 351 404 13,000 -180 Level New York Center
03:19PM 40.1047 -76.0767 95° East 346 398 12,700 -1,620 Descending New York Center
03:20PM 40.0975 -75.9539 94° East 315 362 9,900 -2,100 Descending New York Center
03:21PM 40.0897 -75.8447 95° East 302 348 8,500 -1,380 Descending New York Center
03:33PM 39.9790 -75.8655 207° Southwest  Level Estimated
03:40PM 39.9790 -75.8655 207° Southwest  Level Estimated
03:41PM 39.9790 -75.8655 207° Southwest  Level Estimated